sensor_id;sensor_type;location;lat;lon;timestamp;P1;durP1;ratioP1;P2;durP2;ratioP2
15818;SDS011;8010;53.986;12.106;2023-06-04T00:00:37;1.30;;;0.90;;
15818;SDS011;8010;53.986;12.106;2023-06-04T00:03:02;0.90;;;0.73;;
15818;SDS011;8010;53.986;12.106;2023-06-04T00:05:28;1.47;;;0.97;;
15818;SDS011;8010;53.986;12.106;2023-06-04T00:07:53;0.87;;;0.70;;
15818;SDS011;8010;53.986;12.106;2023-06-04T00:10:19;1.13;;;0.77;;
15818;SDS011;8010;53.986;12.106;2023-06-04T00:12:44;1.43;;;0.90;;
15818;SDS011;8010;53.986;12.106;2023-06-04T00:15:10;1.17;;;0.90;;
15818;SDS011;8010;53.986;12.106;2023-06-04T00:17:35;1.10;;;0.80;;
15818;SDS011;8010;53.986;12.106;2023-06-04T00:20:01;0.90;;;0.80;;
15818;SDS011;8010;53.986;12.106;2023-06-04T00:22:27;1.50;;;1.37;;
15818;SDS011;8010;53.986;12.106;2023-06-04T00:24:53;1.90;;;0.93;;
15818;SDS011;8010;53.986;12.106;2023-06-04T00:27:18;1.10;;;0.77;;
15818;SDS011;8010;53.986;12.106;2023-06-04T00:29:44;3.87;;;0.97;;
15818;SDS011;8010;53.986;12.106;2023-06-04T00:32:09;0.80;;;0.70;;
15818;SDS011;8010;53.986;12.106;2023-06-04T00:34:35;1.13;;;0.90;;
15818;SDS011;8010;53.986;12.106;2023-06-04T00:37:01;1.10;;;0.70;;
15818;SDS011;8010;53.986;12.106;2023-06-04T00:39:26;1.57;;;0.90;;
15818;SDS011;8010;53.986;12.106;2023-06-04T00:41:52;0.90;;;0.80;;
15818;SDS011;8010;53.986;12.106;2023-06-04T00:44:18;1.23;;;0.83;;
15818;SDS011;8010;53.986;12.106;2023-06-04T00:46:46;1.00;;;0.90;;
15818;SDS011;8010;53.986;12.106;2023-06-04T00:49:12;0.77;;;0.60;;
15818;SDS011;8010;53.986;12.106;2023-06-04T00:51:38;1.30;;;0.80;;
15818;SDS011;8010;53.986;12.106;2023-06-04T00:54:06;1.23;;;0.70;;
15818;SDS011;8010;53.986;12.106;2023-06-04T00:56:36;1.37;;;0.73;;
15818;SDS011;8010;53.986;12.106;2023-06-04T00:59:04;1.00;;;0.90;;
15818;SDS011;8010;53.986;12.106;2023-06-04T01:01:45;1.13;;;0.80;;
15818;SDS011;8010;53.986;12.106;2023-06-04T01:04:17;1.80;;;1.10;;
15818;SDS011;8010;53.986;12.106;2023-06-04T01:06:49;1.20;;;0.73;;
15818;SDS011;8010;53.986;12.106;2023-06-04T01:09:17;1.47;;;0.93;;
15818;SDS011;8010;53.986;12.106;2023-06-04T01:11:43;1.60;;;0.93;;
15818;SDS011;8010;53.986;12.106;2023-06-04T01:14:09;1.00;;;0.77;;
15818;SDS011;8010;53.986;12.106;2023-06-04T01:27:57;2.10;;;0.80;;
15818;SDS011;8010;53.986;12.106;2023-06-04T01:30:26;1.50;;;0.90;;
15818;SDS011;8010;53.986;12.106;2023-06-04T01:32:55;1.17;;;1.07;;
15818;SDS011;8010;53.986;12.106;2023-06-04T01:35:22;0.93;;;0.60;;
15818;SDS011;8010;53.986;12.106;2023-06-04T01:37:48;2.97;;;0.80;;
15818;SDS011;8010;53.986;12.106;2023-06-04T01:40:14;1.13;;;0.83;;
15818;SDS011;8010;53.986;12.106;2023-06-04T01:42:40;1.10;;;0.80;;
15818;SDS011;8010;53.986;12.106;2023-06-04T01:45:07;0.90;;;0.70;;
15818;SDS011;8010;53.986;12.106;2023-06-04T01:47:33;2.00;;;0.87;;
15818;SDS011;8010;53.986;12.106;2023-06-04T01:49:59;1.53;;;0.90;;
15818;SDS011;8010;53.986;12.106;2023-06-04T01:52:30;1.47;;;0.93;;
15818;SDS011;8010;53.986;12.106;2023-06-04T01:54:56;1.53;;;0.90;;
15818;SDS011;8010;53.986;12.106;2023-06-04T01:57:22;1.83;;;1.10;;
15818;SDS011;8010;53.986;12.106;2023-06-04T01:59:48;1.00;;;0.90;;
15818;SDS011;8010;53.986;12.106;2023-06-04T02:02:13;2.23;;;1.10;;
15818;SDS011;8010;53.986;12.106;2023-06-04T02:04:40;1.47;;;1.20;;
15818;SDS011;8010;53.986;12.106;2023-06-04T02:07:10;3.13;;;1.10;;
15818;SDS011;8010;53.986;12.106;2023-06-04T02:09:42;3.00;;;1.10;;
15818;SDS011;8010;53.986;12.106;2023-06-04T02:12:08;1.77;;;0.80;;
15818;SDS011;8010;53.986;12.106;2023-06-04T02:14:33;0.93;;;0.80;;
15818;SDS011;8010;53.986;12.106;2023-06-04T02:16:59;1.30;;;0.77;;
15818;SDS011;8010;53.986;12.106;2023-06-04T02:19:24;2.10;;;1.20;;
15818;SDS011;8010;53.986;12.106;2023-06-04T02:21:53;4.70;;;0.80;;
15818;SDS011;8010;53.986;12.106;2023-06-04T02:24:19;1.77;;;0.97;;
15818;SDS011;8010;53.986;12.106;2023-06-04T02:26:44;1.53;;;0.90;;
15818;SDS011;8010;53.986;12.106;2023-06-04T02:29:10;1.17;;;1.03;;
15818;SDS011;8010;53.986;12.106;2023-06-04T02:31:35;0.90;;;0.70;;
15818;SDS011;8010;53.986;12.106;2023-06-04T02:34:01;0.90;;;0.80;;
15818;SDS011;8010;53.986;12.106;2023-06-04T02:36:28;0.90;;;0.83;;
15818;SDS011;8010;53.986;12.106;2023-06-04T02:38:54;2.10;;;1.30;;
15818;SDS011;8010;53.986;12.106;2023-06-04T02:41:20;1.00;;;0.77;;
15818;SDS011;8010;53.986;12.106;2023-06-04T02:43:46;1.43;;;0.83;;
15818;SDS011;8010;53.986;12.106;2023-06-04T02:46:11;0.90;;;0.73;;
15818;SDS011;8010;53.986;12.106;2023-06-04T02:48:37;1.30;;;1.00;;
15818;SDS011;8010;53.986;12.106;2023-06-04T02:51:03;1.30;;;0.90;;
15818;SDS011;8010;53.986;12.106;2023-06-04T02:53:29;1.37;;;0.90;;
15818;SDS011;8010;53.986;12.106;2023-06-04T02:55:55;0.90;;;0.80;;
15818;SDS011;8010;53.986;12.106;2023-06-04T02:58:21;3.90;;;0.83;;
15818;SDS011;8010;53.986;12.106;2023-06-04T03:00:49;1.00;;;0.90;;
15818;SDS011;8010;53.986;12.106;2023-06-04T03:03:17;1.20;;;0.90;;
15818;SDS011;8010;53.986;12.106;2023-06-04T03:05:42;1.00;;;0.90;;
15818;SDS011;8010;53.986;12.106;2023-06-04T03:08:08;1.77;;;1.00;;
15818;SDS011;8010;53.986;12.106;2023-06-04T03:10:33;2.23;;;0.90;;
15818;SDS011;8010;53.986;12.106;2023-06-04T03:12:59;1.10;;;1.00;;
15818;SDS011;8010;53.986;12.106;2023-06-04T03:15:24;1.10;;;1.00;;
15818;SDS011;8010;53.986;12.106;2023-06-04T03:17:50;1.27;;;1.07;;
15818;SDS011;8010;53.986;12.106;2023-06-04T03:20:16;2.83;;;0.97;;
15818;SDS011;8010;53.986;12.106;2023-06-04T03:22:42;1.37;;;0.97;;
15818;SDS011;8010;53.986;12.106;2023-06-04T03:25:07;1.30;;;1.00;;
15818;SDS011;8010;53.986;12.106;2023-06-04T03:27:33;1.40;;;1.10;;
15818;SDS011;8010;53.986;12.106;2023-06-04T03:29:59;1.20;;;0.80;;
15818;SDS011;8010;53.986;12.106;2023-06-04T03:32:25;1.67;;;1.37;;
15818;SDS011;8010;53.986;12.106;2023-06-04T03:34:50;1.60;;;1.00;;
15818;SDS011;8010;53.986;12.106;2023-06-04T03:37:16;1.30;;;0.97;;
15818;SDS011;8010;53.986;12.106;2023-06-04T03:39:42;1.07;;;0.87;;
15818;SDS011;8010;53.986;12.106;2023-06-04T03:42:08;1.47;;;1.00;;
15818;SDS011;8010;53.986;12.106;2023-06-04T03:44:33;1.00;;;0.90;;
15818;SDS011;8010;53.986;12.106;2023-06-04T03:46:59;2.50;;;1.10;;
15818;SDS011;8010;53.986;12.106;2023-06-04T03:49:25;2.83;;;1.30;;
15818;SDS011;8010;53.986;12.106;2023-06-04T03:51:50;1.87;;;1.10;;
15818;SDS011;8010;53.986;12.106;2023-06-04T03:54:16;1.47;;;1.23;;
15818;SDS011;8010;53.986;12.106;2023-06-04T03:56:42;1.67;;;1.20;;
15818;SDS011;8010;53.986;12.106;2023-06-04T03:59:08;1.90;;;1.40;;
15818;SDS011;8010;53.986;12.106;2023-06-04T04:01:34;1.83;;;1.40;;
15818;SDS011;8010;53.986;12.106;2023-06-04T04:03:59;2.00;;;1.23;;
15818;SDS011;8010;53.986;12.106;2023-06-04T04:06:25;1.67;;;1.07;;
15818;SDS011;8010;53.986;12.106;2023-06-04T04:08:51;1.50;;;1.30;;
15818;SDS011;8010;53.986;12.106;2023-06-04T04:11:16;2.70;;;1.57;;
15818;SDS011;8010;53.986;12.106;2023-06-04T04:13:42;2.30;;;1.37;;
15818;SDS011;8010;53.986;12.106;2023-06-04T04:16:09;3.80;;;1.60;;
15818;SDS011;8010;53.986;12.106;2023-06-04T04:18:35;2.43;;;1.43;;
15818;SDS011;8010;53.986;12.106;2023-06-04T04:21:01;1.50;;;1.30;;
15818;SDS011;8010;53.986;12.106;2023-06-04T04:23:29;3.53;;;1.20;;
15818;SDS011;8010;53.986;12.106;2023-06-04T04:25:56;1.40;;;1.30;;
15818;SDS011;8010;53.986;12.106;2023-06-04T04:28:23;1.73;;;1.30;;
15818;SDS011;8010;53.986;12.106;2023-06-04T04:30:49;2.30;;;1.37;;
15818;SDS011;8010;53.986;12.106;2023-06-04T04:33:15;1.77;;;1.30;;
15818;SDS011;8010;53.986;12.106;2023-06-04T04:35:41;1.67;;;1.00;;
15818;SDS011;8010;53.986;12.106;2023-06-04T04:38:07;1.50;;;1.23;;
15818;SDS011;8010;53.986;12.106;2023-06-04T04:40:33;1.97;;;1.33;;
15818;SDS011;8010;53.986;12.106;2023-06-04T04:42:58;1.67;;;1.47;;
15818;SDS011;8010;53.986;12.106;2023-06-04T04:45:24;2.10;;;1.47;;
15818;SDS011;8010;53.986;12.106;2023-06-04T04:47:50;3.53;;;1.40;;
15818;SDS011;8010;53.986;12.106;2023-06-04T04:50:18;2.00;;;1.50;;
15818;SDS011;8010;53.986;12.106;2023-06-04T04:52:43;2.20;;;1.50;;
15818;SDS011;8010;53.986;12.106;2023-06-04T04:55:09;2.60;;;1.90;;
15818;SDS011;8010;53.986;12.106;2023-06-04T04:57:36;3.57;;;2.33;;
15818;SDS011;8010;53.986;12.106;2023-06-04T05:00:03;2.50;;;1.80;;
15818;SDS011;8010;53.986;12.106;2023-06-04T05:02:34;3.07;;;1.73;;
15818;SDS011;8010;53.986;12.106;2023-06-04T05:05:00;2.83;;;1.97;;
15818;SDS011;8010;53.986;12.106;2023-06-04T05:07:26;3.30;;;1.90;;
15818;SDS011;8010;53.986;12.106;2023-06-04T05:09:51;3.13;;;1.90;;
15818;SDS011;8010;53.986;12.106;2023-06-04T05:12:17;2.20;;;1.80;;
15818;SDS011;8010;53.986;12.106;2023-06-04T05:14:43;3.53;;;1.63;;
15818;SDS011;8010;53.986;12.106;2023-06-04T05:17:10;2.40;;;2.13;;
15818;SDS011;8010;53.986;12.106;2023-06-04T05:19:37;6.20;;;2.13;;
15818;SDS011;8010;53.986;12.106;2023-06-04T05:22:03;1.97;;;1.73;;
15818;SDS011;8010;53.986;12.106;2023-06-04T05:24:30;2.10;;;1.67;;
15818;SDS011;8010;53.986;12.106;2023-06-04T05:26:56;2.80;;;1.90;;
15818;SDS011;8010;53.986;12.106;2023-06-04T05:29:22;3.90;;;1.57;;
15818;SDS011;8010;53.986;12.106;2023-06-04T05:31:48;1.53;;;1.23;;
15818;SDS011;8010;53.986;12.106;2023-06-04T05:34:14;2.30;;;1.50;;
15818;SDS011;8010;53.986;12.106;2023-06-04T05:36:41;2.10;;;1.30;;
15818;SDS011;8010;53.986;12.106;2023-06-04T05:39:07;1.80;;;1.27;;
15818;SDS011;8010;53.986;12.106;2023-06-04T05:41:34;2.57;;;1.20;;
15818;SDS011;8010;53.986;12.106;2023-06-04T05:44:00;1.53;;;0.90;;
15818;SDS011;8010;53.986;12.106;2023-06-04T05:46:26;1.93;;;1.50;;
15818;SDS011;8010;53.986;12.106;2023-06-04T05:48:52;1.43;;;1.10;;
15818;SDS011;8010;53.986;12.106;2023-06-04T05:51:18;1.20;;;0.80;;
15818;SDS011;8010;53.986;12.106;2023-06-04T05:53:45;1.83;;;1.20;;
15818;SDS011;8010;53.986;12.106;2023-06-04T05:56:10;1.13;;;1.03;;
15818;SDS011;8010;53.986;12.106;2023-06-04T05:58:36;1.20;;;0.97;;
15818;SDS011;8010;53.986;12.106;2023-06-04T06:01:02;2.60;;;1.20;;
15818;SDS011;8010;53.986;12.106;2023-06-04T06:03:28;1.17;;;0.97;;
15818;SDS011;8010;53.986;12.106;2023-06-04T06:05:53;1.30;;;0.80;;
15818;SDS011;8010;53.986;12.106;2023-06-04T06:08:19;1.83;;;0.90;;
15818;SDS011;8010;53.986;12.106;2023-06-04T06:10:45;0.97;;;0.73;;
15818;SDS011;8010;53.986;12.106;2023-06-04T06:13:11;1.30;;;0.80;;
15818;SDS011;8010;53.986;12.106;2023-06-04T06:15:37;2.57;;;0.90;;
15818;SDS011;8010;53.986;12.106;2023-06-04T06:18:03;1.60;;;0.60;;
15818;SDS011;8010;53.986;12.106;2023-06-04T06:20:29;1.83;;;0.67;;
15818;SDS011;8010;53.986;12.106;2023-06-04T06:22:54;2.90;;;0.70;;
15818;SDS011;8010;53.986;12.106;2023-06-04T06:25:20;2.50;;;0.60;;
15818;SDS011;8010;53.986;12.106;2023-06-04T06:27:45;4.00;;;0.70;;
15818;SDS011;8010;53.986;12.106;2023-06-04T06:30:13;1.03;;;0.57;;
15818;SDS011;8010;53.986;12.106;2023-06-04T06:32:39;1.43;;;0.80;;
15818;SDS011;8010;53.986;12.106;2023-06-04T06:35:04;1.53;;;0.60;;
15818;SDS011;8010;53.986;12.106;2023-06-04T06:37:30;1.00;;;0.70;;
15818;SDS011;8010;53.986;12.106;2023-06-04T06:39:56;2.07;;;1.00;;
15818;SDS011;8010;53.986;12.106;2023-06-04T06:42:22;1.10;;;0.60;;
15818;SDS011;8010;53.986;12.106;2023-06-04T06:44:47;1.20;;;0.67;;
15818;SDS011;8010;53.986;12.106;2023-06-04T06:47:13;1.00;;;0.80;;
15818;SDS011;8010;53.986;12.106;2023-06-04T06:49:39;0.83;;;0.60;;
15818;SDS011;8010;53.986;12.106;2023-06-04T06:52:08;1.67;;;0.90;;
15818;SDS011;8010;53.986;12.106;2023-06-04T06:54:34;2.43;;;0.80;;
15818;SDS011;8010;53.986;12.106;2023-06-04T06:56:59;1.13;;;0.80;;
15818;SDS011;8010;53.986;12.106;2023-06-04T06:59:25;1.00;;;0.67;;
15818;SDS011;8010;53.986;12.106;2023-06-04T07:01:51;0.80;;;0.67;;
15818;SDS011;8010;53.986;12.106;2023-06-04T07:04:17;1.40;;;0.67;;
15818;SDS011;8010;53.986;12.106;2023-06-04T07:06:43;0.80;;;0.70;;
15818;SDS011;8010;53.986;12.106;2023-06-04T07:09:08;2.53;;;0.90;;
15818;SDS011;8010;53.986;12.106;2023-06-04T07:11:34;0.77;;;0.70;;
15818;SDS011;8010;53.986;12.106;2023-06-04T07:14:00;1.23;;;0.70;;
15818;SDS011;8010;53.986;12.106;2023-06-04T07:16:29;1.67;;;1.03;;
15818;SDS011;8010;53.986;12.106;2023-06-04T07:18:55;1.53;;;0.70;;
15818;SDS011;8010;53.986;12.106;2023-06-04T07:21:20;1.77;;;0.63;;
15818;SDS011;8010;53.986;12.106;2023-06-04T07:23:48;0.90;;;0.70;;
15818;SDS011;8010;53.986;12.106;2023-06-04T07:26:15;2.20;;;0.80;;
15818;SDS011;8010;53.986;12.106;2023-06-04T07:28:42;2.17;;;0.83;;
15818;SDS011;8010;53.986;12.106;2023-06-04T07:31:07;2.10;;;0.90;;
15818;SDS011;8010;53.986;12.106;2023-06-04T07:33:33;1.83;;;0.70;;
15818;SDS011;8010;53.986;12.106;2023-06-04T07:35:59;1.87;;;0.80;;
15818;SDS011;8010;53.986;12.106;2023-06-04T07:38:25;2.53;;;0.87;;
15818;SDS011;8010;53.986;12.106;2023-06-04T07:40:50;2.00;;;0.90;;
15818;SDS011;8010;53.986;12.106;2023-06-04T07:43:16;0.80;;;0.73;;
15818;SDS011;8010;53.986;12.106;2023-06-04T07:45:42;2.70;;;0.80;;
15818;SDS011;8010;53.986;12.106;2023-06-04T07:48:09;2.13;;;0.80;;
15818;SDS011;8010;53.986;12.106;2023-06-04T07:50:35;2.90;;;0.70;;
15818;SDS011;8010;53.986;12.106;2023-06-04T07:53:01;1.00;;;0.70;;
15818;SDS011;8010;53.986;12.106;2023-06-04T07:55:27;0.90;;;0.80;;
15818;SDS011;8010;53.986;12.106;2023-06-04T07:57:52;1.50;;;0.83;;
15818;SDS011;8010;53.986;12.106;2023-06-04T08:00:18;0.60;;;0.60;;
15818;SDS011;8010;53.986;12.106;2023-06-04T08:02:43;1.73;;;0.90;;
15818;SDS011;8010;53.986;12.106;2023-06-04T08:05:09;3.10;;;0.90;;
15818;SDS011;8010;53.986;12.106;2023-06-04T08:07:34;0.80;;;0.60;;
15818;SDS011;8010;53.986;12.106;2023-06-04T08:10:00;2.07;;;0.67;;
15818;SDS011;8010;53.986;12.106;2023-06-04T08:12:26;1.57;;;0.90;;
15818;SDS011;8010;53.986;12.106;2023-06-04T08:14:51;2.00;;;0.93;;
15818;SDS011;8010;53.986;12.106;2023-06-04T08:17:20;1.57;;;0.70;;
15818;SDS011;8010;53.986;12.106;2023-06-04T08:19:45;1.33;;;0.70;;
15818;SDS011;8010;53.986;12.106;2023-06-04T08:22:11;1.47;;;0.80;;
15818;SDS011;8010;53.986;12.106;2023-06-04T08:24:36;2.40;;;0.80;;
15818;SDS011;8010;53.986;12.106;2023-06-04T08:27:02;0.90;;;0.60;;
15818;SDS011;8010;53.986;12.106;2023-06-04T08:29:27;0.90;;;0.60;;
15818;SDS011;8010;53.986;12.106;2023-06-04T08:31:53;0.70;;;0.70;;
15818;SDS011;8010;53.986;12.106;2023-06-04T08:34:18;1.53;;;0.87;;
15818;SDS011;8010;53.986;12.106;2023-06-04T08:36:44;2.27;;;0.70;;
15818;SDS011;8010;53.986;12.106;2023-06-04T08:39:11;0.87;;;0.63;;
15818;SDS011;8010;53.986;12.106;2023-06-04T08:44:09;2.17;;;0.90;;
15818;SDS011;8010;53.986;12.106;2023-06-04T08:46:37;1.00;;;0.77;;
15818;SDS011;8010;53.986;12.106;2023-06-04T08:49:07;1.93;;;0.70;;
15818;SDS011;8010;53.986;12.106;2023-06-04T08:51:34;1.43;;;0.73;;
15818;SDS011;8010;53.986;12.106;2023-06-04T08:54:05;1.37;;;0.73;;
15818;SDS011;8010;53.986;12.106;2023-06-04T08:56:32;1.90;;;1.27;;
15818;SDS011;8010;53.986;12.106;2023-06-04T08:59:02;0.93;;;0.70;;
15818;SDS011;8010;53.986;12.106;2023-06-04T09:01:30;2.07;;;0.90;;
15818;SDS011;8010;53.986;12.106;2023-06-04T09:03:57;1.07;;;0.60;;
15818;SDS011;8010;53.986;12.106;2023-06-04T09:06:27;2.73;;;0.80;;
15818;SDS011;8010;53.986;12.106;2023-06-04T09:08:55;0.70;;;0.57;;
15818;SDS011;8010;53.986;12.106;2023-06-04T09:11:26;1.73;;;0.60;;
15818;SDS011;8010;53.986;12.106;2023-06-04T09:13:54;1.87;;;0.63;;
15818;SDS011;8010;53.986;12.106;2023-06-04T09:16:26;0.87;;;0.70;;
15818;SDS011;8010;53.986;12.106;2023-06-04T09:18:51;1.57;;;0.60;;
15818;SDS011;8010;53.986;12.106;2023-06-04T09:21:18;1.33;;;0.97;;
15818;SDS011;8010;53.986;12.106;2023-06-04T09:23:45;2.10;;;0.77;;
15818;SDS011;8010;53.986;12.106;2023-06-04T09:26:12;1.97;;;0.60;;
15818;SDS011;8010;53.986;12.106;2023-06-04T09:28:41;1.90;;;0.70;;
15818;SDS011;8010;53.986;12.106;2023-06-04T09:31:17;1.20;;;0.80;;
15818;SDS011;8010;53.986;12.106;2023-06-04T09:36:31;1.67;;;0.83;;
15818;SDS011;8010;53.986;12.106;2023-06-04T09:38:58;2.93;;;0.90;;
15818;SDS011;8010;53.986;12.106;2023-06-04T09:41:24;1.47;;;0.90;;
15818;SDS011;8010;53.986;12.106;2023-06-04T09:43:51;1.13;;;0.80;;
15818;SDS011;8010;53.986;12.106;2023-06-04T09:46:27;1.17;;;0.70;;
15818;SDS011;8010;53.986;12.106;2023-06-04T09:48:58;1.47;;;0.90;;
15818;SDS011;8010;53.986;12.106;2023-06-04T09:51:25;2.00;;;1.20;;
15818;SDS011;8010;53.986;12.106;2023-06-04T09:53:55;1.67;;;1.13;;
15818;SDS011;8010;53.986;12.106;2023-06-04T09:56:21;2.10;;;1.10;;
15818;SDS011;8010;53.986;12.106;2023-06-04T09:58:50;2.23;;;1.10;;
15818;SDS011;8010;53.986;12.106;2023-06-04T10:01:19;2.13;;;1.00;;
15818;SDS011;8010;53.986;12.106;2023-06-04T10:03:46;2.50;;;1.13;;
15818;SDS011;8010;53.986;12.106;2023-06-04T10:06:14;3.93;;;1.20;;
15818;SDS011;8010;53.986;12.106;2023-06-04T10:08:43;5.30;;;1.27;;
15818;SDS011;8010;53.986;12.106;2023-06-04T10:11:11;6.30;;;1.37;;
15818;SDS011;8010;53.986;12.106;2023-06-04T10:13:42;3.90;;;1.20;;
15818;SDS011;8010;53.986;12.106;2023-06-04T10:16:12;2.03;;;1.30;;
15818;SDS011;8010;53.986;12.106;2023-06-04T10:18:38;4.00;;;1.60;;
15818;SDS011;8010;53.986;12.106;2023-06-04T10:21:04;2.40;;;1.20;;
15818;SDS011;8010;53.986;12.106;2023-06-04T10:23:31;5.03;;;1.50;;
15818;SDS011;8010;53.986;12.106;2023-06-04T10:25:57;3.00;;;1.60;;
15818;SDS011;8010;53.986;12.106;2023-06-04T10:28:23;3.83;;;1.60;;
15818;SDS011;8010;53.986;12.106;2023-06-04T10:30:49;2.87;;;1.37;;
15818;SDS011;8010;53.986;12.106;2023-06-04T10:33:21;4.70;;;1.77;;
15818;SDS011;8010;53.986;12.106;2023-06-04T10:35:49;5.47;;;1.53;;
15818;SDS011;8010;53.986;12.106;2023-06-04T10:38:16;5.03;;;1.70;;
15818;SDS011;8010;53.986;12.106;2023-06-04T10:40:43;5.10;;;1.60;;
15818;SDS011;8010;53.986;12.106;2023-06-04T10:43:10;5.80;;;1.60;;
15818;SDS011;8010;53.986;12.106;2023-06-04T10:45:36;3.13;;;1.50;;
15818;SDS011;8010;53.986;12.106;2023-06-04T10:48:07;2.13;;;1.40;;
15818;SDS011;8010;53.986;12.106;2023-06-04T10:50:34;2.67;;;1.43;;
15818;SDS011;8010;53.986;12.106;2023-06-04T10:53:00;4.33;;;1.40;;
15818;SDS011;8010;53.986;12.106;2023-06-04T10:55:30;2.67;;;1.40;;
15818;SDS011;8010;53.986;12.106;2023-06-04T10:58:00;4.73;;;1.70;;
15818;SDS011;8010;53.986;12.106;2023-06-04T11:00:37;3.73;;;1.50;;
15818;SDS011;8010;53.986;12.106;2023-06-04T11:03:04;6.60;;;1.60;;
15818;SDS011;8010;53.986;12.106;2023-06-04T11:05:38;3.93;;;1.30;;
15818;SDS011;8010;53.986;12.106;2023-06-04T11:08:11;5.67;;;1.70;;
15818;SDS011;8010;53.986;12.106;2023-06-04T11:10:39;1.97;;;1.00;;
15818;SDS011;8010;53.986;12.106;2023-06-04T11:13:06;4.17;;;1.40;;
15818;SDS011;8010;53.986;12.106;2023-06-04T11:15:44;5.90;;;1.50;;
15818;SDS011;8010;53.986;12.106;2023-06-04T11:18:22;4.00;;;1.40;;
15818;SDS011;8010;53.986;12.106;2023-06-04T11:20:49;2.07;;;1.20;;
15818;SDS011;8010;53.986;12.106;2023-06-04T11:23:23;7.17;;;1.40;;
15818;SDS011;8010;53.986;12.106;2023-06-04T11:25:49;3.70;;;1.30;;
15818;SDS011;8010;53.986;12.106;2023-06-04T11:28:17;2.97;;;1.33;;
15818;SDS011;8010;53.986;12.106;2023-06-04T11:30:44;5.80;;;1.30;;
15818;SDS011;8010;53.986;12.106;2023-06-04T11:33:20;3.13;;;1.30;;
15818;SDS011;8010;53.986;12.106;2023-06-04T11:35:46;4.23;;;1.20;;
15818;SDS011;8010;53.986;12.106;2023-06-04T11:38:11;5.07;;;1.27;;
15818;SDS011;8010;53.986;12.106;2023-06-04T11:40:37;1.87;;;1.00;;
15818;SDS011;8010;53.986;12.106;2023-06-04T11:43:02;4.93;;;1.43;;
15818;SDS011;8010;53.986;12.106;2023-06-04T11:45:28;2.67;;;1.30;;
15818;SDS011;8010;53.986;12.106;2023-06-04T11:47:57;3.43;;;1.50;;
15818;SDS011;8010;53.986;12.106;2023-06-04T11:50:26;3.20;;;1.40;;
15818;SDS011;8010;53.986;12.106;2023-06-04T11:52:53;1.83;;;1.03;;
15818;SDS011;8010;53.986;12.106;2023-06-04T11:55:19;2.63;;;1.37;;
15818;SDS011;8010;53.986;12.106;2023-06-04T11:57:48;2.83;;;1.00;;
15818;SDS011;8010;53.986;12.106;2023-06-04T12:00:15;2.23;;;1.13;;
15818;SDS011;8010;53.986;12.106;2023-06-04T12:02:51;3.93;;;1.20;;
15818;SDS011;8010;53.986;12.106;2023-06-04T12:05:18;4.20;;;1.60;;
15818;SDS011;8010;53.986;12.106;2023-06-04T12:07:44;3.03;;;1.00;;
15818;SDS011;8010;53.986;12.106;2023-06-04T12:10:10;2.13;;;1.13;;
15818;SDS011;8010;53.986;12.106;2023-06-04T12:12:37;3.50;;;1.10;;
15818;SDS011;8010;53.986;12.106;2023-06-04T12:15:02;4.33;;;1.10;;
15818;SDS011;8010;53.986;12.106;2023-06-04T12:17:30;4.23;;;1.40;;
15818;SDS011;8010;53.986;12.106;2023-06-04T12:19:56;3.30;;;1.20;;
15818;SDS011;8010;53.986;12.106;2023-06-04T12:22:23;1.80;;;0.97;;
15818;SDS011;8010;53.986;12.106;2023-06-04T12:24:53;4.60;;;1.73;;
15818;SDS011;8010;53.986;12.106;2023-06-04T12:27:24;2.83;;;1.20;;
15818;SDS011;8010;53.986;12.106;2023-06-04T12:29:56;3.33;;;1.20;;
15818;SDS011;8010;53.986;12.106;2023-06-04T12:32:23;2.03;;;1.10;;
15818;SDS011;8010;53.986;12.106;2023-06-04T12:34:48;4.07;;;1.20;;
15818;SDS011;8010;53.986;12.106;2023-06-04T12:37:14;2.87;;;1.00;;
15818;SDS011;8010;53.986;12.106;2023-06-04T12:39:40;2.87;;;1.17;;
15818;SDS011;8010;53.986;12.106;2023-06-04T12:42:06;3.33;;;1.23;;
15818;SDS011;8010;53.986;12.106;2023-06-04T12:44:33;3.40;;;1.20;;
15818;SDS011;8010;53.986;12.106;2023-06-04T12:47:03;1.77;;;0.93;;
15818;SDS011;8010;53.986;12.106;2023-06-04T12:49:28;2.40;;;0.93;;
15818;SDS011;8010;53.986;12.106;2023-06-04T12:51:54;3.30;;;1.10;;
15818;SDS011;8010;53.986;12.106;2023-06-04T12:54:19;4.17;;;1.10;;
15818;SDS011;8010;53.986;12.106;2023-06-04T12:56:45;2.50;;;1.10;;
15818;SDS011;8010;53.986;12.106;2023-06-04T12:59:11;5.03;;;1.33;;
15818;SDS011;8010;53.986;12.106;2023-06-04T13:01:36;5.00;;;1.13;;
15818;SDS011;8010;53.986;12.106;2023-06-04T13:04:05;1.67;;;1.00;;
15818;SDS011;8010;53.986;12.106;2023-06-04T13:06:31;3.53;;;1.30;;
15818;SDS011;8010;53.986;12.106;2023-06-04T13:08:59;3.50;;;1.23;;
15818;SDS011;8010;53.986;12.106;2023-06-04T13:11:24;6.13;;;1.80;;
15818;SDS011;8010;53.986;12.106;2023-06-04T13:13:50;2.20;;;1.00;;
15818;SDS011;8010;53.986;12.106;2023-06-04T13:16:16;2.07;;;0.90;;
15818;SDS011;8010;53.986;12.106;2023-06-04T13:18:41;1.77;;;0.80;;
15818;SDS011;8010;53.986;12.106;2023-06-04T13:21:07;1.83;;;1.10;;
15818;SDS011;8010;53.986;12.106;2023-06-04T13:23:32;1.40;;;0.90;;
15818;SDS011;8010;53.986;12.106;2023-06-04T13:25:58;3.07;;;1.20;;
15818;SDS011;8010;53.986;12.106;2023-06-04T13:28:23;4.40;;;1.30;;
15818;SDS011;8010;53.986;12.106;2023-06-04T13:30:49;1.40;;;0.97;;
15818;SDS011;8010;53.986;12.106;2023-06-04T13:33:14;2.23;;;1.13;;
15818;SDS011;8010;53.986;12.106;2023-06-04T13:35:41;3.87;;;0.87;;
15818;SDS011;8010;53.986;12.106;2023-06-04T13:38:07;3.97;;;1.00;;
15818;SDS011;8010;53.986;12.106;2023-06-04T13:40:36;2.40;;;1.20;;
15818;SDS011;8010;53.986;12.106;2023-06-04T13:43:01;2.40;;;1.20;;
15818;SDS011;8010;53.986;12.106;2023-06-04T13:45:27;2.00;;;0.90;;
15818;SDS011;8010;53.986;12.106;2023-06-04T13:47:53;2.83;;;1.13;;
15818;SDS011;8010;53.986;12.106;2023-06-04T13:50:19;2.33;;;0.93;;
15818;SDS011;8010;53.986;12.106;2023-06-04T13:52:44;3.83;;;1.27;;
15818;SDS011;8010;53.986;12.106;2023-06-04T13:55:11;1.83;;;1.10;;
15818;SDS011;8010;53.986;12.106;2023-06-04T13:57:38;1.43;;;0.70;;
15818;SDS011;8010;53.986;12.106;2023-06-04T14:00:04;2.00;;;0.90;;
15818;SDS011;8010;53.986;12.106;2023-06-04T14:02:32;1.40;;;0.80;;
15818;SDS011;8010;53.986;12.106;2023-06-04T14:04:57;5.10;;;1.20;;
15818;SDS011;8010;53.986;12.106;2023-06-04T14:07:23;2.37;;;1.20;;
15818;SDS011;8010;53.986;12.106;2023-06-04T14:09:48;3.47;;;1.23;;
15818;SDS011;8010;53.986;12.106;2023-06-04T14:12:19;2.40;;;1.00;;
15818;SDS011;8010;53.986;12.106;2023-06-04T14:14:45;3.60;;;1.30;;
15818;SDS011;8010;53.986;12.106;2023-06-04T14:17:11;1.77;;;0.90;;
15818;SDS011;8010;53.986;12.106;2023-06-04T14:19:36;4.40;;;1.30;;
15818;SDS011;8010;53.986;12.106;2023-06-04T14:22:04;2.10;;;1.00;;
15818;SDS011;8010;53.986;12.106;2023-06-04T14:24:29;1.20;;;0.90;;
15818;SDS011;8010;53.986;12.106;2023-06-04T14:26:55;1.77;;;1.20;;
15818;SDS011;8010;53.986;12.106;2023-06-04T14:29:21;2.13;;;1.10;;
15818;SDS011;8010;53.986;12.106;2023-06-04T14:31:46;3.03;;;1.10;;
15818;SDS011;8010;53.986;12.106;2023-06-04T14:34:12;1.40;;;1.10;;
15818;SDS011;8010;53.986;12.106;2023-06-04T14:36:38;1.27;;;0.97;;
15818;SDS011;8010;53.986;12.106;2023-06-04T14:39:03;1.20;;;0.97;;
15818;SDS011;8010;53.986;12.106;2023-06-04T14:41:29;2.07;;;1.00;;
15818;SDS011;8010;53.986;12.106;2023-06-04T14:43:55;2.27;;;1.20;;
15818;SDS011;8010;53.986;12.106;2023-06-04T14:46:20;1.83;;;1.10;;
15818;SDS011;8010;53.986;12.106;2023-06-04T14:48:46;1.63;;;1.07;;
15818;SDS011;8010;53.986;12.106;2023-06-04T14:51:12;1.10;;;1.00;;
15818;SDS011;8010;53.986;12.106;2023-06-04T14:53:37;3.53;;;1.20;;
15818;SDS011;8010;53.986;12.106;2023-06-04T14:56:04;2.43;;;1.07;;
15818;SDS011;8010;53.986;12.106;2023-06-04T14:58:30;2.03;;;1.00;;
15818;SDS011;8010;53.986;12.106;2023-06-04T15:00:55;3.50;;;1.40;;